createdAt,value
2019-03-12T00:02:09.838Z,3.87
2019-03-12T00:04:42.734Z,3.87
2019-03-12T00:07:12.868Z,3.92
2019-03-12T00:09:43.011Z,3.94
2019-03-12T00:12:14.694Z,3.94
2019-03-12T00:14:44.984Z,3.96
2019-03-12T00:17:16.790Z,3.90
2019-03-12T00:19:46.928Z,3.98
2019-03-12T00:22:17.287Z,3.99
2019-03-12T00:24:47.422Z,4.02
2019-03-12T00:27:23.092Z,4.08
2019-03-12T00:29:53.255Z,4.09
2019-03-12T00:32:23.625Z,4.12
2019-03-12T00:34:53.691Z,4.19
2019-03-12T00:37:23.866Z,4.06
2019-03-12T00:39:54.002Z,4.15
2019-03-12T00:42:24.185Z,4.25
2019-03-12T00:44:54.305Z,4.25
2019-03-12T00:47:25.032Z,4.26
2019-03-12T00:49:55.162Z,4.26
2019-03-12T00:52:27.936Z,4.18
2019-03-12T00:55:01.103Z,4.28
2019-03-12T00:57:33.989Z,4.30
2019-03-12T01:00:08.065Z,3.87
2019-03-12T01:02:41.724Z,4.38
2019-03-12T01:05:12.252Z,4.47
2019-03-12T01:07:44.527Z,4.48
2019-03-12T01:10:15.334Z,4.38
2019-03-12T01:12:46.530Z,4.51
2019-03-12T01:15:17.058Z,4.56
2019-03-12T01:17:47.276Z,4.55
2019-03-12T01:20:18.994Z,4.40
2019-03-12T01:22:49.026Z,4.41
2019-03-12T01:25:19.751Z,4.48
2019-03-12T01:27:49.727Z,4.58
2019-03-12T01:30:19.982Z,4.43
2019-03-12T01:32:50.698Z,4.25
2019-03-12T01:37:48.589Z,4.33
2019-03-12T01:40:18.478Z,4.40
2019-03-12T01:42:48.500Z,4.47
2019-03-12T01:45:18.437Z,4.41
2019-03-12T01:47:48.436Z,4.41
2019-03-12T01:50:19.305Z,4.29
2019-03-12T01:52:49.751Z,4.11
2019-03-12T01:55:19.718Z,4.16
2019-03-12T01:57:49.746Z,4.23
2019-03-12T02:00:20.272Z,4.25
2019-03-12T02:02:50.709Z,4.25
2019-03-12T02:05:21.272Z,4.23
2019-03-12T02:07:51.265Z,4.29
2019-03-12T02:10:21.726Z,4.19
2019-03-12T02:12:52.069Z,4.29
2019-03-12T02:15:22.204Z,4.04
2019-03-12T02:17:52.954Z,4.09
2019-03-12T02:20:23.998Z,3.89
2019-03-12T02:22:54.206Z,3.76
2019-03-12T02:25:24.860Z,3.69
2019-03-12T02:27:55.335Z,3.62
2019-03-12T02:30:25.666Z,3.48
2019-03-12T02:32:57.758Z,3.35
2019-03-12T02:35:33.219Z,3.28
2019-03-12T02:38:04.264Z,3.11
2019-03-12T02:40:38.945Z,2.99
2019-03-12T02:43:09.085Z,3.02
2019-03-12T02:45:39.322Z,2.98
2019-03-12T02:48:09.360Z,3.01
2019-03-12T02:50:40.709Z,3.06
2019-03-12T02:53:10.601Z,3.11
2019-03-12T02:55:40.753Z,3.13
2019-03-12T02:58:10.705Z,3.05
2019-03-12T03:00:40.834Z,3.06
2019-03-12T03:03:11.067Z,3.16
2019-03-12T03:06:03.134Z,3.20
2019-03-12T03:08:34.366Z,3.15
2019-03-12T03:11:05.552Z,3.07
2019-03-12T03:13:35.858Z,2.98
2019-03-12T03:16:05.969Z,2.87
2019-03-12T03:18:37.084Z,2.82
2019-03-12T03:21:08.714Z,2.23
2019-03-12T03:23:38.626Z,2.06
2019-03-12T03:26:08.562Z,2.80
2019-03-12T03:28:42.182Z,2.99
2019-03-12T03:31:13.145Z,3.23
2019-03-12T03:33:43.466Z,3.17
2019-03-12T03:36:13.656Z,3.42
2019-03-12T03:38:43.726Z,3.55
2019-03-12T03:41:13.922Z,3.57
2019-03-12T03:43:44.734Z,3.34
2019-03-12T03:46:15.901Z,3.40
2019-03-12T03:48:46.125Z,3.46
2019-03-12T03:51:15.955Z,3.46
2019-03-12T03:53:46.282Z,3.61
2019-03-12T03:56:17.020Z,3.69
2019-03-12T03:58:47.570Z,3.63
2019-03-12T04:01:17.949Z,3.70
2019-03-12T04:03:48.473Z,3.73
2019-03-12T04:06:18.474Z,3.05
2019-03-12T04:08:48.514Z,3.73
2019-03-12T04:11:18.561Z,3.63
2019-03-12T04:13:48.451Z,3.65
2019-03-12T04:16:19.365Z,3.59
2019-03-12T04:18:49.700Z,3.61
2019-03-12T04:21:19.897Z,3.60
2019-03-12T04:23:49.799Z,3.69
2019-03-12T04:26:20.112Z,3.61
2019-03-12T04:28:50.266Z,3.67
2019-03-12T04:31:20.339Z,3.75
2019-03-12T04:34:19.639Z,3.64
2019-03-12T04:36:50.815Z,3.76
2019-03-12T04:39:21.075Z,3.02
2019-03-12T04:41:51.330Z,3.49
2019-03-12T04:44:21.208Z,3.42
2019-03-12T04:46:51.152Z,3.52
2019-03-12T04:49:21.016Z,3.02
2019-03-12T04:51:50.963Z,3.36
2019-03-12T04:54:20.833Z,3.41
2019-03-12T04:56:50.833Z,3.37
2019-03-12T04:59:21.205Z,3.48
2019-03-12T05:01:51.242Z,3.58
2019-03-12T05:04:21.091Z,3.80
2019-03-12T05:06:51.091Z,3.76
2019-03-12T05:09:21.104Z,3.82
2019-03-12T05:11:51.441Z,3.72
2019-03-12T05:14:26.208Z,3.67
2019-03-12T05:16:59.388Z,3.74
2019-03-12T05:19:30.534Z,3.55
2019-03-12T05:22:01.111Z,3.69
2019-03-12T05:24:33.228Z,3.53
2019-03-12T05:27:03.550Z,3.57
2019-03-12T05:29:34.000Z,3.41
2019-03-12T05:32:04.194Z,3.48
2019-03-12T05:34:35.338Z,3.53
2019-03-12T05:37:05.780Z,3.58
2019-03-12T05:39:36.690Z,3.51
2019-03-12T05:42:07.453Z,3.62
2019-03-12T05:44:37.920Z,3.75
2019-03-12T05:47:08.459Z,3.44
2019-03-12T05:49:39.012Z,3.48
2019-03-12T05:52:09.277Z,3.35
2019-03-12T05:54:39.899Z,3.25
2019-03-12T05:57:10.029Z,3.22
2019-03-12T05:59:40.343Z,3.34
2019-03-12T06:02:10.805Z,3.43
2019-03-12T06:04:41.071Z,3.45
2019-03-12T06:07:11.971Z,3.58
2019-03-12T06:09:42.442Z,3.67
2019-03-12T06:12:12.602Z,3.81
2019-03-12T06:14:42.824Z,3.88
2019-03-12T06:17:13.496Z,4.15
2019-03-12T06:19:43.942Z,4.09
2019-03-12T06:22:14.383Z,4.05
2019-03-12T06:24:44.573Z,4.10
2019-03-12T06:27:17.967Z,4.23
2019-03-12T06:29:47.174Z,4.40
2019-03-12T06:32:36.455Z,4.40
2019-03-12T06:35:26.068Z,4.63
2019-03-12T06:38:08.059Z,4.63
2019-03-12T06:40:57.157Z,4.37
2019-03-12T06:43:43.646Z,4.41
2019-03-12T06:46:25.298Z,4.21
2019-03-12T06:49:08.638Z,4.14
2019-03-12T06:51:45.354Z,4.24
2019-03-12T06:54:40.920Z,4.37
2019-03-12T06:57:21.943Z,4.41
2019-03-12T07:00:05.445Z,4.60
2019-03-12T07:03:12.904Z,4.60
2019-03-12T07:06:02.206Z,4.52
2019-03-12T07:08:44.072Z,4.57
2019-03-12T07:11:32.316Z,4.40
2019-03-12T07:14:08.707Z,4.45
2019-03-12T07:17:04.002Z,4.51
2019-03-12T07:19:57.321Z,4.57
2019-03-12T07:22:36.968Z,4.57
2019-03-12T07:25:20.416Z,4.47
2019-03-12T07:28:09.429Z,4.58
2019-03-12T07:30:56.340Z,4.49
2019-03-12T07:33:54.506Z,4.06
2019-03-12T07:36:45.125Z,4.59
2019-03-12T07:39:43.198Z,4.68
2019-03-12T07:42:34.996Z,4.86
2019-03-12T07:45:12.205Z,5.11
2019-03-12T07:48:02.661Z,5.27
2019-03-12T07:50:44.253Z,5.28
2019-03-12T07:53:33.510Z,5.29
2019-03-12T07:56:21.130Z,5.32
2019-03-12T07:59:10.438Z,5.22
2019-03-12T08:02:02.679Z,5.40
2019-03-12T08:05:01.024Z,5.45
2019-03-12T08:07:49.114Z,5.56
2019-03-12T08:10:41.258Z,5.48
2019-03-12T08:13:20.957Z,5.25
2019-03-12T08:16:10.626Z,5.21
2019-03-12T08:19:02.642Z,5.27
2019-03-12T08:21:51.772Z,5.35
2019-03-12T08:24:42.449Z,5.38
2019-03-12T08:27:45.154Z,5.34
2019-03-12T08:30:47.286Z,5.50
2019-03-12T08:33:49.577Z,5.12
2019-03-12T08:36:28.540Z,5.84
2019-03-12T08:39:13.178Z,5.80
2019-03-12T08:42:09.298Z,5.88
2019-03-12T08:45:05.032Z,5.87
2019-03-12T08:47:54.842Z,6.02
2019-03-12T08:50:50.541Z,6.25
2019-03-12T08:53:28.844Z,6.48
2019-03-12T08:56:07.410Z,6.63
2019-03-12T08:58:59.998Z,6.50
2019-03-12T09:01:55.642Z,6.37
2019-03-12T09:04:51.822Z,6.17
2019-03-12T09:07:42.291Z,6.18
2019-03-12T09:10:32.097Z,6.29
2019-03-12T09:13:08.056Z,6.30
2019-03-12T09:15:55.982Z,6.53
2019-03-12T09:18:43.534Z,6.73
2019-03-12T09:21:37.089Z,6.84
2019-03-12T09:24:16.921Z,6.79
2019-03-12T09:26:54.194Z,6.87
2019-03-12T09:29:36.820Z,6.86
2019-03-12T09:32:26.219Z,6.71
2019-03-12T09:35:18.074Z,6.78
2019-03-12T09:38:05.848Z,6.89
2019-03-12T09:40:53.624Z,7.09
2019-03-12T09:43:39.759Z,7.22
2019-03-12T09:46:24.125Z,7.29
2019-03-12T09:49:12.277Z,7.22
2019-03-12T09:51:51.730Z,7.20
2019-03-12T09:54:29.692Z,7.18
2019-03-12T09:57:21.846Z,7.32
2019-03-12T10:00:15.609Z,7.37
2019-03-12T10:02:55.855Z,7.37
2019-03-12T10:05:42.803Z,7.41
2019-03-12T10:08:34.574Z,7.43
2019-03-12T10:11:29.884Z,7.72
2019-03-12T10:14:17.324Z,7.77
2019-03-12T10:17:12.418Z,8.09
2019-03-12T10:20:01.958Z,8.09
2019-03-12T10:22:59.995Z,7.80
2019-03-12T10:25:44.561Z,7.73
2019-03-12T10:28:26.176Z,7.73
2019-03-12T10:31:21.145Z,7.62
2019-03-12T10:34:29.600Z,7.64
2019-03-12T10:37:19.797Z,7.71
2019-03-12T10:40:12.067Z,7.71
2019-03-12T10:43:27.735Z,7.77
2019-03-12T10:46:23.192Z,7.73
2019-03-12T10:48:53.448Z,8.47
2019-03-12T10:51:27.808Z,8.47
2019-03-12T10:54:00.666Z,8.31
2019-03-12T10:56:30.905Z,8.19
2019-03-12T10:59:01.486Z,7.56
2019-03-12T11:01:31.782Z,7.56
2019-03-12T11:04:03.003Z,8.15
2019-03-12T11:06:33.375Z,8.14
2019-03-12T11:09:05.451Z,8.40
2019-03-12T11:11:36.042Z,8.50
2019-03-12T11:14:08.610Z,8.69
2019-03-12T11:16:38.877Z,8.69
2019-03-12T11:19:09.234Z,8.88
2019-03-12T11:21:39.851Z,8.80
2019-03-12T11:24:09.957Z,8.80
2019-03-12T11:26:40.360Z,8.74
2019-03-12T11:29:10.542Z,8.46
2019-03-12T11:31:40.908Z,8.60
2019-03-12T11:34:11.253Z,9.08
2019-03-12T11:36:41.578Z,9.10
2019-03-12T11:39:11.868Z,9.35
2019-03-12T11:41:42.158Z,9.41
2019-03-12T11:44:12.455Z,9.22
2019-03-12T11:46:45.528Z,9.21
2019-03-12T11:49:15.156Z,9.23
2019-03-12T11:51:45.408Z,9.13
2019-03-12T11:54:15.760Z,9.25
2019-03-12T11:56:46.163Z,9.48
2019-03-12T11:59:16.699Z,9.39
2019-03-12T12:01:47.063Z,9.63
2019-03-12T12:04:17.749Z,9.85
2019-03-12T12:06:48.082Z,9.87
2019-03-12T12:09:18.343Z,9.85
2019-03-12T12:11:48.626Z,10.43
2019-03-12T12:14:19.134Z,9.80
2019-03-12T12:16:54.014Z,9.91
2019-03-12T12:19:23.794Z,10.07
2019-03-12T12:21:55.513Z,9.90
2019-03-12T12:24:26.748Z,9.90
2019-03-12T12:26:58.214Z,9.91
2019-03-12T12:29:28.384Z,9.76
2019-03-12T12:31:58.727Z,9.78
2019-03-12T12:34:32.200Z,9.82
2019-03-12T12:37:02.589Z,10.06
2019-03-12T12:39:32.936Z,9.46
2019-03-12T12:42:03.305Z,9.91
2019-03-12T12:44:33.546Z,9.78
2019-03-12T12:47:03.952Z,9.58
2019-03-12T12:49:34.361Z,9.60
2019-03-12T12:52:04.638Z,9.36
2019-03-12T12:54:35.747Z,9.35
2019-03-12T12:57:06.640Z,9.52
2019-03-12T12:59:37.884Z,9.82
2019-03-12T13:02:09.590Z,9.97
2019-03-12T13:04:39.949Z,9.91
2019-03-12T13:07:10.456Z,10.06
2019-03-12T13:09:41.055Z,10.39
2019-03-12T13:12:11.388Z,9.86
2019-03-12T13:14:41.963Z,9.79
2019-03-12T13:17:12.583Z,9.76
2019-03-12T13:19:43.128Z,9.87
2019-03-12T13:22:13.602Z,9.66
2019-03-12T13:24:44.000Z,10.13
2019-03-12T13:27:15.010Z,10.44
2019-03-12T13:29:45.282Z,10.39
2019-03-12T13:32:15.819Z,9.94
2019-03-12T13:34:46.835Z,9.71
2019-03-12T13:37:17.175Z,9.64
2019-03-12T13:39:48.272Z,9.66
2019-03-12T13:42:20.069Z,10.08
2019-03-12T13:44:50.848Z,9.72
2019-03-12T13:47:21.676Z,9.66
2019-03-12T13:49:52.649Z,9.71
2019-03-12T13:52:22.933Z,9.62
2019-03-12T13:54:53.674Z,9.89
2019-03-12T13:57:24.218Z,9.93
2019-03-12T13:59:54.934Z,10.34
2019-03-12T14:02:25.509Z,10.19
2019-03-12T14:04:58.672Z,9.89
2019-03-12T14:07:29.041Z,9.79
2019-03-12T14:09:59.842Z,9.51
2019-03-12T14:12:32.145Z,9.47
2019-03-12T14:15:03.086Z,9.24
2019-03-12T14:17:33.467Z,9.37
2019-03-12T14:20:39.799Z,9.31
2019-03-12T14:23:10.444Z,9.50
2019-03-12T14:25:40.731Z,9.53
2019-03-12T14:28:12.421Z,9.80
2019-03-12T14:30:42.874Z,10.11
2019-03-12T14:33:13.676Z,9.72
2019-03-12T14:35:51.606Z,9.82
2019-03-12T14:38:17.149Z,9.46
2019-03-12T14:40:48.206Z,9.64
2019-03-12T14:43:18.781Z,9.48
2019-03-12T14:45:52.124Z,9.53
2019-03-12T14:48:43.230Z,9.91
2019-03-12T14:51:40.287Z,9.92
2019-03-12T14:54:11.062Z,9.71
2019-03-12T14:56:42.859Z,9.69
2019-03-12T14:59:16.279Z,9.60
2019-03-12T15:01:47.456Z,9.35
2019-03-12T15:04:18.796Z,9.32
2019-03-12T15:06:50.935Z,9.19
2019-03-12T15:09:21.840Z,8.52
2019-03-12T15:14:23.970Z,9.21
2019-03-12T15:16:55.095Z,9.21
2019-03-12T15:19:25.705Z,9.16
2019-03-12T15:21:56.184Z,9.07
2019-03-12T15:24:27.805Z,8.93
2019-03-12T15:26:58.247Z,9.00
2019-03-12T15:29:28.777Z,9.19
2019-03-12T15:32:04.475Z,9.46
2019-03-12T15:34:32.541Z,9.28
2019-03-12T15:37:03.683Z,9.35
2019-03-12T15:39:35.590Z,9.32
2019-03-12T15:42:08.566Z,9.35
2019-03-12T15:44:39.460Z,9.41
2019-03-12T15:47:09.974Z,9.29
2019-03-12T15:49:42.794Z,9.18
2019-03-12T15:52:13.778Z,9.22
2019-03-12T15:54:44.560Z,9.01
2019-03-12T15:57:15.059Z,8.86
2019-03-12T15:59:45.392Z,8.94
2019-03-12T16:02:16.146Z,9.08
2019-03-12T16:04:46.479Z,9.03
2019-03-12T16:07:17.531Z,8.89
2019-03-12T16:09:48.225Z,8.84
2019-03-12T16:12:18.895Z,8.82
2019-03-12T16:14:49.342Z,8.90
2019-03-12T16:17:19.724Z,8.96
2019-03-12T16:19:57.034Z,8.70
2019-03-12T16:22:28.423Z,8.74
2019-03-12T16:24:59.881Z,8.90
2019-03-12T16:27:30.653Z,8.93
2019-03-12T16:30:00.989Z,8.94
2019-03-12T16:32:35.130Z,8.95
2019-03-12T16:35:04.627Z,8.75
2019-03-12T16:37:35.228Z,8.64
2019-03-12T16:40:06.228Z,8.59
2019-03-12T16:42:36.921Z,8.54
2019-03-12T16:45:08.151Z,8.60
2019-03-12T16:47:38.884Z,8.49
2019-03-12T16:50:09.411Z,8.43
2019-03-12T16:52:39.838Z,8.48
2019-03-12T16:55:10.254Z,8.58
2019-03-12T16:57:40.711Z,8.52
2019-03-12T17:00:12.290Z,8.49
2019-03-12T17:02:42.612Z,8.41
2019-03-12T17:05:13.127Z,8.44
2019-03-12T17:07:43.597Z,8.32
2019-03-12T17:10:14.679Z,8.36
2019-03-12T17:12:45.744Z,8.33
2019-03-12T17:15:17.076Z,8.35
2019-03-12T17:17:47.455Z,8.43
2019-03-12T17:20:17.987Z,8.39
2019-03-12T17:22:48.747Z,8.31
2019-03-12T17:25:18.995Z,8.29
2019-03-12T17:27:51.816Z,8.36
2019-03-12T17:30:22.407Z,8.35
2019-03-12T17:32:53.468Z,8.34
2019-03-12T17:35:25.688Z,8.35
2019-03-12T17:37:56.001Z,8.29
2019-03-12T17:40:25.423Z,8.28
2019-03-12T17:42:55.673Z,8.33
2019-03-12T17:45:25.949Z,8.21
2019-03-12T17:47:56.580Z,8.10
2019-03-12T17:50:27.039Z,8.10
2019-03-12T17:52:57.439Z,8.14
2019-03-12T17:55:28.699Z,8.19
2019-03-12T17:57:59.181Z,8.19
2019-03-12T18:00:30.397Z,8.16
2019-03-12T18:05:42.546Z,8.14
2019-03-12T18:08:12.889Z,8.05
2019-03-12T18:10:43.084Z,8.10
2019-03-12T18:13:15.233Z,8.00
2019-03-12T18:15:45.683Z,8.07
2019-03-12T18:18:17.263Z,8.09
2019-03-12T18:20:47.453Z,8.01
2019-03-12T18:23:17.950Z,8.10
2019-03-12T18:25:48.336Z,8.10
2019-03-12T18:28:19.933Z,7.99
2019-03-12T18:30:51.804Z,7.93
2019-03-12T18:33:25.468Z,8.00
2019-03-12T18:35:55.703Z,8.00
2019-03-12T18:38:25.991Z,8.00
2019-03-12T18:40:56.522Z,7.93
2019-03-12T18:43:27.296Z,7.96
2019-03-12T18:45:57.956Z,7.96
2019-03-12T18:48:28.316Z,8.01
2019-03-12T18:50:58.450Z,8.07
2019-03-12T18:53:28.679Z,8.12
2019-03-12T18:56:17.892Z,8.06
2019-03-12T18:58:48.161Z,8.06
2019-03-12T19:01:18.682Z,8.15
2019-03-12T19:04:20.090Z,8.15
2019-03-12T19:07:01.637Z,8.08
2019-03-12T19:09:42.557Z,8.04
2019-03-12T19:12:23.583Z,8.03
2019-03-12T19:15:04.811Z,8.03
2019-03-12T19:17:46.587Z,8.05
2019-03-12T19:20:47.552Z,8.02
2019-03-12T19:23:29.876Z,8.03
2019-03-12T19:26:11.583Z,8.03
2019-03-12T19:29:00.644Z,8.01
2019-03-12T19:32:08.473Z,8.03
2019-03-12T19:35:17.613Z,7.92
2019-03-12T19:38:06.750Z,7.92
2019-03-12T19:43:58.486Z,7.96
2019-03-12T19:46:58.651Z,7.98
2019-03-12T19:49:39.714Z,8.03
2019-03-12T19:55:49.803Z,8.06
2019-03-12T20:02:16.086Z,8.16
2019-03-12T20:05:10.407Z,8.16
2019-03-12T20:07:52.133Z,8.20
2019-03-12T20:11:00.043Z,8.24
2019-03-12T20:14:07.793Z,8.27
2019-03-12T20:17:16.832Z,8.34
2019-03-12T20:20:25.544Z,8.37
2019-03-12T20:23:33.704Z,8.42
2019-03-12T20:26:42.049Z,8.43
2019-03-12T20:29:50.381Z,8.32
2019-03-12T20:32:58.262Z,8.48
2019-03-12T20:35:39.073Z,8.58
2019-03-12T20:38:47.853Z,8.54
2019-03-12T20:41:58.004Z,8.62
2019-03-12T20:45:07.677Z,8.08
2019-03-12T20:48:19.801Z,8.73
2019-03-12T20:51:03.716Z,8.75
2019-03-12T20:54:30.236Z,8.77
2019-03-12T20:57:38.334Z,8.80
2019-03-12T21:00:20.033Z,8.83
2019-03-12T21:03:03.335Z,8.78
2019-03-12T21:06:11.319Z,8.74
2019-03-12T21:09:19.747Z,8.70
2019-03-12T21:12:45.733Z,8.71
2019-03-12T21:15:56.844Z,8.66
2019-03-12T21:19:05.065Z,7.93
2019-03-12T21:21:48.042Z,7.90
2019-03-12T21:24:33.217Z,8.54
2019-03-12T21:27:15.131Z,8.55
2019-03-12T21:29:56.753Z,8.56
2019-03-12T21:33:15.282Z,8.59
2019-03-12T21:38:52.611Z,8.57
2019-03-12T21:41:34.662Z,8.53
2019-03-12T21:44:16.623Z,8.55
2019-03-12T21:46:47.243Z,8.57
2019-03-12T21:49:19.391Z,8.58
2019-03-12T21:51:51.297Z,8.51
2019-03-12T21:54:24.768Z,8.56
2019-03-12T21:56:58.440Z,8.53
2019-03-12T21:59:29.598Z,8.52
2019-03-12T22:02:01.036Z,8.57
2019-03-12T22:04:31.289Z,8.59
2019-03-12T22:07:03.566Z,8.54
2019-03-12T22:09:35.658Z,8.55
2019-03-12T22:12:06.595Z,8.58
2019-03-12T22:14:37.409Z,8.57
2019-03-12T22:17:11.653Z,8.45
2019-03-12T22:19:42.025Z,8.43
2019-03-12T22:22:34.415Z,8.40
2019-03-12T22:25:10.385Z,8.41
2019-03-12T22:27:41.771Z,8.45
2019-03-12T22:30:16.119Z,7.97
2019-03-12T22:32:46.897Z,8.54
2019-03-12T22:35:17.867Z,8.67
2019-03-12T22:37:48.952Z,8.83
2019-03-12T22:40:20.201Z,8.74
2019-03-12T22:42:50.724Z,8.73
2019-03-12T22:45:22.599Z,8.59
2019-03-12T22:47:54.504Z,8.55
2019-03-12T22:50:26.511Z,8.61
2019-03-12T22:53:00.451Z,8.65
2019-03-12T22:55:32.351Z,8.73
2019-03-12T22:58:05.131Z,8.77
2019-03-12T23:00:40.077Z,8.89
2019-03-12T23:03:11.737Z,8.87
2019-03-12T23:05:42.097Z,8.83
2019-03-12T23:08:12.323Z,8.86
2019-03-12T23:10:42.945Z,8.75
2019-03-12T23:13:13.171Z,8.82
2019-03-12T23:15:43.529Z,8.82
2019-03-12T23:18:14.091Z,8.76
2019-03-12T23:20:45.011Z,8.63
2019-03-12T23:23:15.274Z,8.63
2019-03-12T23:25:46.022Z,8.84
2019-03-12T23:28:17.781Z,8.90
2019-03-12T23:30:51.733Z,8.80
2019-03-12T23:33:22.415Z,8.65
2019-03-12T23:35:52.806Z,8.40
2019-03-12T23:38:22.890Z,8.40
2019-03-12T23:40:53.445Z,8.32
2019-03-12T23:43:23.616Z,8.40
2019-03-12T23:45:54.022Z,8.28
2019-03-12T23:48:26.435Z,8.28
2019-03-12T23:50:57.376Z,8.24
2019-03-12T23:53:27.739Z,8.24
2019-03-12T23:55:58.246Z,8.20
2019-03-12T23:58:32.640Z,8.21
